Time;durP1;ratioP1;P1;durP2;ratioP2;P2;SDS_P1;SDS_P2;PMS_P1;PMS_P2;Temp;Humidity;BMP_temperature;BMP_pressure;BME280_temperature;BME280_humidity;BME280_pressure;Samples;Min_cycle;Max_cycle;Signal;HPM_P1;HPM_P2
2022/03/29 00:05:04;;;;;;;26.77;14.07;;;7.60;99.90;;;;;;10384392;28;20273;-79
2022/03/29 00:10:26;;;;;;;20.97;13.00;;;7.50;99.90;;;;;;10383892;28;20190;-80
2022/03/29 00:15:48;;;;;;;22.10;13.30;;;7.50;99.90;;;;;;10384362;28;20199;-80
2022/03/29 00:21:11;;;;;;;22.20;13.83;;;7.50;99.90;;;;;;10371691;28;20533;-79
2022/03/29 00:26:33;;;;;;;25.50;14.20;;;7.50;99.90;;;;;;10372579;28;20227;-82
2022/03/29 00:31:54;;;;;;;27.80;14.10;;;7.50;99.90;;;;;;10397507;28;20247;-79
2022/03/29 00:37:16;;;;;;;37.40;14.63;;;7.50;99.90;;;;;;10397726;28;20240;-82
2022/03/29 00:42:39;;;;;;;27.47;15.17;;;7.50;99.90;;;;;;10377197;28;20416;-79
2022/03/29 00:48:02;;;;;;;22.97;13.87;;;7.60;99.90;;;;;;10398089;28;20274;-79
2022/03/29 00:53:24;;;;;;;23.63;14.57;;;7.50;99.90;;;;;;10382767;28;20197;-86
2022/03/29 00:58:47;;;;;;;23.73;14.07;;;7.50;99.90;;;;;;10383115;28;20254;-86
2022/03/29 01:04:10;;;;;;;23.80;15.30;;;7.50;99.90;;;;;;10383456;28;20218;-81
2022/03/29 01:09:33;;;;;;;27.20;15.13;;;7.50;99.90;;;;;;10400130;28;20195;-79
2022/03/29 01:14:56;;;;;;;24.70;14.00;;;7.40;99.90;;;;;;10368873;28;20204;-79
2022/03/29 01:20:24;;;;;;;28.33;14.83;;;7.50;99.90;;;;;;10404593;28;20495;-80
2022/03/29 01:25:50;;;;;;;26.10;14.13;;;7.40;99.90;;;;;;10402677;28;20195;-83
2022/03/29 01:31:13;;;;;;;26.10;14.97;;;7.40;99.90;;;;;;10399085;28;20198;-80
2022/03/29 01:36:35;;;;;;;25.30;14.90;;;7.30;99.90;;;;;;10382263;28;20242;-79
2022/03/29 01:41:57;;;;;;;25.70;14.83;;;7.30;99.90;;;;;;10380859;28;20236;-79
2022/03/29 01:47:21;;;;;;;27.67;14.17;;;7.30;99.90;;;;;;10381388;28;20200;-79
2022/03/29 01:52:45;;;;;;;23.47;13.60;;;7.30;99.90;;;;;;10394654;28;20489;-80
2022/03/29 01:58:07;;;;;;;25.90;13.80;;;7.30;99.90;;;;;;10395028;28;20448;-79
2022/03/29 02:03:29;;;;;;;26.13;13.93;;;7.20;99.90;;;;;;10394511;28;20226;-79
2022/03/29 02:08:52;;;;;;;27.37;14.77;;;7.20;99.90;;;;;;10394589;28;20562;-83
2022/03/29 02:14:14;;;;;;;28.73;14.70;;;7.30;99.90;;;;;;10398253;28;20224;-79
2022/03/29 02:19:36;;;;;;;24.63;13.83;;;7.20;99.90;;;;;;10389616;28;20250;-82
2022/03/29 02:24:58;;;;;;;22.53;12.00;;;7.20;99.90;;;;;;10378754;28;20291;-82
2022/03/29 02:30:20;;;;;;;26.13;12.60;;;7.20;99.90;;;;;;10403212;28;20210;-79
2022/03/29 02:35:42;;;;;;;29.07;12.67;;;7.10;99.90;;;;;;10387284;28;20261;-80
2022/03/29 02:41:04;;;;;;;25.40;12.77;;;7.10;99.90;;;;;;10401847;28;20616;-80
2022/03/29 02:46:26;;;;;;;23.80;11.60;;;7.10;99.90;;;;;;10401648;28;20242;-83
2022/03/29 02:51:49;;;;;;;28.23;12.17;;;7.00;99.90;;;;;;10401386;28;20198;-82
2022/03/29 02:57:11;;;;;;;22.53;11.17;;;6.90;99.90;;;;;;10401467;28;20220;-80
2022/03/29 03:02:33;;;;;;;24.27;10.63;;;6.90;99.90;;;;;;10387148;28;20526;-79
2022/03/29 03:07:55;;;;;;;24.53;10.93;;;6.90;99.90;;;;;;10387088;28;20199;-78
2022/03/29 03:13:17;;;;;;;25.50;11.53;;;6.80;99.90;;;;;;10386487;28;20200;-80
2022/03/29 03:18:39;;;;;;;25.40;11.80;;;6.70;99.90;;;;;;10380741;28;20198;-79
2022/03/29 03:24:01;;;;;;;25.07;12.17;;;6.70;99.90;;;;;;10359127;28;20205;-79
2022/03/29 03:29:23;;;;;;;25.07;12.27;;;6.60;99.90;;;;;;10397918;28;20426;-79
2022/03/29 03:34:45;;;;;;;24.67;10.63;;;;;;;;;;10385183;28;20254;-79
2022/03/29 03:40:09;;;;;;;26.53;11.47;;;6.60;99.90;;;;;;10399092;28;20238;-79
2022/03/29 03:45:32;;;;;;;32.37;12.83;;;6.60;99.90;;;;;;10399494;28;20207;-78
2022/03/29 03:50:54;;;;;;;27.77;11.83;;;6.60;99.90;;;;;;10371567;28;20210;-81
2022/03/29 03:56:16;;;;;;;21.40;11.20;;;6.60;99.90;;;;;;10398768;28;20197;-79
2022/03/29 04:01:38;;;;;;;23.70;11.97;;;6.70;99.90;;;;;;10397668;28;20249;-79
2022/03/29 04:07:00;;;;;;;26.50;12.87;;;6.70;99.90;;;;;;10398140;28;20196;-79
2022/03/29 04:12:21;;;;;;;29.57;14.23;;;6.70;99.90;;;;;;10384458;28;20436;-79
2022/03/29 04:17:44;;;;;;;28.03;13.10;;;6.60;99.90;;;;;;10398660;28;20228;-79
2022/03/29 04:23:07;;;;;;;30.87;12.57;;;6.60;99.90;;;;;;10365872;28;20232;-79
2022/03/29 04:28:29;;;;;;;23.10;10.80;;;6.50;99.90;;;;;;10363832;28;20510;-78
2022/03/29 04:33:50;;;;;;;22.73;9.93;;;6.50;99.90;;;;;;10383037;28;20223;-80
2022/03/29 04:39:12;;;;;;;20.27;8.77;;;6.40;99.90;;;;;;10396953;28;20553;-79
2022/03/29 04:44:35;;;;;;;22.03;9.67;;;6.50;99.90;;;;;;10383323;28;20222;-85
2022/03/29 04:49:57;;;;;;;24.20;9.53;;;6.50;99.90;;;;;;10413355;28;20230;-84
2022/03/29 04:55:19;;;;;;;24.83;12.23;;;6.50;99.90;;;;;;10414223;28;20246;-79
2022/03/29 05:00:41;;;;;;;24.07;12.53;;;6.60;99.90;;;;;;10396776;28;20220;-78
2022/03/29 05:06:03;;;;;;;18.10;9.93;;;6.60;99.90;;;;;;10397581;28;20198;-78
2022/03/29 05:11:25;;;;;;;17.40;9.37;;;6.60;99.90;;;;;;10396848;28;20237;-78
2022/03/29 05:16:47;;;;;;;16.43;7.63;;;6.50;99.90;;;;;;10398503;28;20353;-79
2022/03/29 05:22:09;;;;;;;20.90;8.40;;;6.50;99.90;;;;;;10434435;28;20223;-78
2022/03/29 05:27:31;;;;;;;21.67;10.53;;;6.50;99.90;;;;;;10379714;28;20235;-86
2022/03/29 05:32:57;;;;;;;19.57;8.80;;;6.50;99.90;;;;;;10381956;28;20310;-79
2022/03/29 05:38:19;;;;;;;23.97;10.50;;;6.60;99.90;;;;;;10381317;28;20247;-81
2022/03/29 05:43:41;;;;;;;22.37;7.40;;;6.60;99.90;;;;;;10394454;28;20466;-78
2022/03/29 05:49:04;;;;;;;13.23;7.30;;;6.60;99.90;;;;;;10410817;28;20286;-79
2022/03/29 05:54:25;;;;;;;39.53;26.10;;;6.70;99.90;;;;;;10394737;28;20203;-78
2022/03/29 05:59:47;;;;;;;23.33;12.03;;;6.80;99.90;;;;;;10400285;28;20816;-80
2022/03/29 06:05:09;;;;;;;46.00;28.07;;;6.90;99.90;;;;;;10381252;28;20489;-80
2022/03/29 06:10:31;;;;;;;18.30;9.30;;;7.00;99.90;;;;;;10385794;28;20279;-81
2022/03/29 06:15:53;;;;;;;15.63;8.30;;;7.10;99.90;;;;;;10412643;28;20405;-80
2022/03/29 06:21:16;;;;;;;17.27;7.03;;;7.10;99.90;;;;;;10407051;28;20296;-80
2022/03/29 06:26:41;;;;;;;23.80;9.57;;;7.20;99.90;;;;;;10380528;28;20204;-80
2022/03/29 06:32:04;;;;;;;15.13;7.03;;;7.30;99.90;;;;;;10385848;28;20280;-80
2022/03/29 06:37:26;;;;;;;20.13;10.40;;;7.60;99.90;;;;;;10355391;28;20234;-80
2022/03/29 06:42:49;;;;;;;19.23;7.80;;;7.70;99.90;;;;;;10394487;28;20292;-81
2022/03/29 06:48:12;;;;;;;16.27;6.07;;;7.80;99.90;;;;;;10379938;28;20497;-80
2022/03/29 06:53:34;;;;;;;20.13;7.10;;;8.60;99.90;;;;;;10380504;28;20201;-80
2022/03/29 06:58:56;;;;;;;8.13;5.50;;;10.30;99.90;;;;;;10409464;28;20201;-80
2022/03/29 07:04:18;;;;;;;13.77;6.57;;;11.60;96.40;;;;;;10417300;28;20201;-79
2022/03/29 07:15:22;;;;;;;13.02;5.47;;;11.40;94.00;;;;;;10400641;28;20200;-81
2022/03/29 07:20:44;;;;;;;16.67;6.87;;;11.40;91.90;;;;;;10353670;28;20240;-78
2022/03/29 07:26:07;;;;;;;15.40;8.47;;;11.00;92.40;;;;;;10356336;28;20201;-80
2022/03/29 07:31:29;;;;;;;15.23;7.27;;;11.20;93.00;;;;;;10383877;28;20205;-81
2022/03/29 07:36:52;;;;;;;17.17;9.07;;;11.30;91.30;;;;;;10367902;28;20609;-78
2022/03/29 07:42:14;;;;;;;12.33;5.40;;;11.00;93.70;;;;;;10353722;28;20256;-80
2022/03/29 07:47:36;;;;;;;14.27;5.93;;;10.60;94.40;;;;;;10332513;28;20256;-80
2022/03/29 07:53:12;;;;;;;15.13;6.40;;;10.40;92.80;;;;;;10358358;28;20575;-81
2022/03/29 07:58:35;;;;;;;12.10;5.60;;;10.20;93.40;;;;;;10341772;28;20243;-81
2022/03/29 08:03:56;;;;;;;11.05;5.22;;;11.00;92.50;;;;;;10383741;28;20276;-87
2022/03/29 08:09:18;;;;;;;13.57;5.20;;;12.60;78.80;;;;;;10366293;28;20198;-81
2022/03/29 08:14:40;;;;;;;15.40;4.72;;;13.40;65.80;;;;;;10393851;28;20203;-82
2022/03/29 08:20:05;;;;;;;9.77;5.40;;;13.60;57.40;;;;;;10380480;28;20237;-81
2022/03/29 08:25:29;;;;;;;11.82;4.90;;;13.30;58.40;;;;;;10380539;28;20199;-82
2022/03/29 08:30:54;;;;;;;22.13;9.65;;;13.00;59.50;;;;;;10355253;28;20514;-81
2022/03/29 08:36:16;;;;;;;14.25;6.88;;;13.00;56.70;;;;;;10351780;28;20599;-82
2022/03/29 08:41:46;;;;;;;13.13;5.47;;;13.20;55.60;;;;;;10351462;28;20239;-81
2022/03/29 08:47:09;;;;;;;9.07;5.05;;;13.20;52.40;;;;;;10351434;28;20194;-78
2022/03/29 08:52:32;;;;;;;10.10;4.32;;;13.40;51.10;;;;;;10349023;28;20234;-81
2022/03/29 08:57:55;;;;;;;17.55;5.93;;;13.70;49.00;;;;;;10358142;28;20215;-82
2022/03/29 09:03:17;;;;;;;12.48;5.70;;;13.60;49.70;;;;;;10375233;28;20235;-80
2022/03/29 09:08:46;;;;;;;11.80;5.25;;;13.50;50.20;;;;;;10377073;28;20403;-82
2022/03/29 09:14:08;;;;;;;9.23;5.45;;;13.00;50.40;;;;;;10377693;28;20553;-81
2022/03/29 09:19:47;;;;;;;8.77;4.88;;;12.50;51.00;;;;;;10375124;28;20259;-81
2022/03/29 09:25:16;;;;;;;7.57;3.60;;;12.60;51.90;;;;;;10387761;28;20221;-79
2022/03/29 09:30:42;;;;;;;8.05;3.92;;;13.00;48.40;;;;;;10371164;28;20262;-86
2022/03/29 09:36:12;;;;;;;13.93;4.43;;;13.70;43.20;;;;;;10377913;28;20247;-81
2022/03/29 09:41:40;;;;;;;8.38;4.25;;;14.40;40.10;;;;;;10380031;28;20290;-78
2022/03/29 09:47:27;;;;;;;8.40;3.40;;;14.60;37.20;;;;;;10393020;28;20263;-80
2022/03/29 09:52:48;;;;;;;11.68;4.10;;;14.90;37.10;;;;;;10378812;28;20506;-79
2022/03/29 09:58:14;;;;;;;10.18;4.25;;;16.30;33.10;;;;;;10389666;28;20202;-80
2022/03/29 10:03:37;;;;;;;9.70;4.00;;;15.30;30.50;;;;;;10390323;28;20419;-79
2022/03/29 10:14:42;;;;;;;8.10;4.07;;;15.40;30.10;;;;;;10376551;28;20204;-80
2022/03/29 10:20:06;;;;;;;7.55;3.35;;;15.50;30.60;;;;;;10370912;28;20292;-80
2022/03/29 10:25:31;;;;;;;11.80;4.07;;;15.10;31.20;;;;;;10356154;28;20247;-79
2022/03/29 10:30:53;;;;;;;6.82;3.20;;;14.50;29.50;;;;;;10368466;28;20283;-81
2022/03/29 10:36:15;;;;;;;9.32;4.38;;;14.50;29.60;;;;;;10378729;28;20323;-81
2022/03/29 10:41:43;;;;;;;11.40;3.58;;;14.40;29.70;;;;;;10355600;28;20289;-80
2022/03/29 10:47:26;;;;;;;7.03;3.10;;;14.30;29.90;;;;;;10356242;28;20199;-80
2022/03/29 10:52:50;;;;;;;20.42;6.28;;;14.30;29.80;;;;;;10381599;28;20213;-79
2022/03/29 10:58:14;;;;;;;10.30;5.07;;;13.80;34.50;;;;;;10392023;28;20200;-78
2022/03/29 11:03:55;;;;;;;9.68;5.28;;;12.80;36.20;;;;;;10396978;28;20253;-79
2022/03/29 11:09:18;;;;;;;8.50;3.13;;;12.30;39.20;;;;;;10373848;28;20205;-80
2022/03/29 11:14:41;;;;;;;12.02;4.82;;;12.10;39.30;;;;;;10374629;28;20495;-80
2022/03/29 11:20:31;;;;;;;18.50;5.63;;;12.30;38.80;;;;;;10397768;28;20310;-79
2022/03/29 11:25:54;;;;;;;12.13;4.78;;;12.40;38.20;;;;;;10411806;28;20204;-79
2022/03/29 11:31:17;;;;;;;24.73;8.27;;;11.90;39.80;;;;;;10406639;28;20191;-82
2022/03/29 11:36:40;;;;;;;13.63;4.77;;;11.80;43.90;;;;;;10394467;28;20304;-81
2022/03/29 11:42:03;;;;;;;20.77;5.83;;;11.50;44.60;;;;;;10380078;28;20232;-81
2022/03/29 11:47:25;;;;;;;10.47;5.20;;;11.40;44.40;;;;;;10352991;28;20379;-81
2022/03/29 11:52:47;;;;;;;11.03;5.00;;;11.70;42.30;;;;;;10368622;28;20211;-81
2022/03/29 11:58:35;;;;;;;10.57;4.70;;;11.80;41.20;;;;;;10377348;28;20208;-87
2022/03/29 12:04:03;;;;;;;17.27;5.87;;;11.60;41.50;;;;;;10385611;28;20535;-80
2022/03/29 12:09:26;;;;;;;13.43;4.57;;;11.70;43.10;;;;;;10360415;28;20228;-84
2022/03/29 12:15:09;;;;;;;13.10;4.67;;;11.60;45.60;;;;;;10374995;28;20219;-80
2022/03/29 12:20:44;;;;;;;9.50;4.23;;;11.40;49.30;;;;;;10382765;28;20236;-80
2022/03/29 12:26:08;;;;;;;12.10;4.07;;;11.30;52.40;;;;;;10374708;28;20201;-82
2022/03/29 12:31:30;;;;;;;10.30;3.30;;;11.50;50.60;;;;;;10364500;28;20235;-82
2022/03/29 12:36:58;;;;;;;8.77;3.90;;;11.70;49.20;;;;;;10379533;28;20232;-83
2022/03/29 12:42:19;;;;;;;15.23;4.27;;;11.70;49.20;;;;;;10365472;28;21759;-84
2022/03/29 12:47:44;;;;;;;16.67;4.83;;;11.60;47.60;;;;;;10349891;28;20546;-84
2022/03/29 12:53:07;;;;;;;14.03;3.77;;;11.50;50.70;;;;;;10354515;28;20228;-80
2022/03/29 12:58:31;;;;;;;16.13;4.67;;;11.50;50.60;;;;;;10381019;28;20390;-82
2022/03/29 13:03:52;;;;;;;13.30;3.87;;;11.50;51.70;;;;;;10365158;28;20538;-80
2022/03/29 13:09:16;;;;;;;14.87;3.97;;;11.40;52.70;;;;;;10351526;28;20225;-84
2022/03/29 13:14:41;;;;;;;13.53;3.83;;;11.40;54.60;;;;;;10376189;28;20215;-82
2022/03/29 13:20:04;;;;;;;20.40;5.00;;;11.10;57.70;;;;;;10382851;28;20357;-80
2022/03/29 13:25:36;;;;;;;11.50;4.30;;;10.90;59.70;;;;;;10368744;28;20224;-80
2022/03/29 13:30:59;;;;;;;12.73;4.13;;;10.80;65.10;;;;;;10400132;28;20204;-81
2022/03/29 13:36:23;;;;;;;13.50;4.10;;;10.80;68.90;;;;;;10384263;28;20245;-80
2022/03/29 13:41:45;;;;;;;15.50;3.50;;;10.90;68.70;;;;;;10396747;28;20242;-84
2022/03/29 13:47:07;;;;;;;13.93;3.90;;;10.90;68.40;;;;;;10398445;28;20673;-82
2022/03/29 13:52:30;;;;;;;11.93;4.73;;;10.80;66.50;;;;;;10400336;28;20204;-80
2022/03/29 13:57:53;;;;;;;15.13;3.73;;;10.60;70.10;;;;;;10408202;28;20196;-83
2022/03/29 14:03:15;;;;;;;11.73;4.43;;;10.60;70.40;;;;;;10391951;28;20231;-80
2022/03/29 14:08:37;;;;;;;17.83;4.03;;;10.70;71.50;;;;;;10411116;28;20187;-79
2022/03/29 14:13:59;;;;;;;11.00;4.97;;;10.80;71.70;;;;;;10406679;28;20239;-80
2022/03/29 14:19:21;;;;;;;12.07;4.20;;;10.70;72.90;;;;;;10393059;28;20215;-81
2022/03/29 14:24:45;;;;;;;14.33;3.43;;;10.70;71.00;;;;;;10382248;28;20243;-83
2022/03/29 14:30:15;;;;;;;8.63;2.90;;;10.70;66.30;;;;;;10381437;28;20214;-80
2022/03/29 14:35:38;;;;;;;13.37;3.63;;;10.60;66.00;;;;;;10382598;28;20266;-79
2022/03/29 14:41:00;;;;;;;14.33;3.37;;;10.60;67.00;;;;;;10397135;28;20232;-80
2022/03/29 14:46:22;;;;;;;15.43;6.67;;;10.60;68.90;;;;;;10381050;28;20208;-80
2022/03/29 14:51:44;;;;;;;14.43;4.80;;;10.70;69.30;;;;;;10379411;28;20450;-81
2022/03/29 14:57:06;;;;;;;9.73;3.27;;;10.50;64.50;;;;;;10393142;28;20228;-81
2022/03/29 15:02:30;;;;;;;15.23;4.57;;;10.50;67.30;;;;;;10382105;28;20306;-80
2022/03/29 15:07:53;;;;;;;21.60;4.60;;;10.20;71.00;;;;;;10398744;28;20250;-81
2022/03/29 15:13:15;;;;;;;14.60;5.27;;;10.10;73.60;;;;;;10396788;28;20389;-81
2022/03/29 15:18:38;;;;;;;14.13;5.00;;;10.10;77.70;;;;;;10432675;28;20259;-81
2022/03/29 15:24:00;;;;;;;13.50;4.03;;;10.00;77.50;;;;;;10385016;28;20531;-80
2022/03/29 15:29:22;;;;;;;13.57;5.57;;;10.00;81.10;;;;;;10397235;28;20438;-80
2022/03/29 15:34:44;;;;;;;19.43;5.90;;;10.00;83.60;;;;;;10385748;28;20470;-81
2022/03/29 15:40:07;;;;;;;11.67;5.00;;;9.90;87.90;;;;;;10385618;28;20207;-80
2022/03/29 15:45:30;;;;;;;13.13;5.10;;;9.80;91.70;;;;;;10385516;28;20203;-80
2022/03/29 15:50:52;;;;;;;15.30;6.33;;;9.50;93.20;;;;;;10386573;28;20195;-81
2022/03/29 15:56:14;;;;;;;18.07;7.13;;;9.40;94.40;;;;;;10410041;28;20192;-81
2022/03/29 16:01:36;;;;;;;22.80;7.67;;;9.30;95.90;;;;;;10391148;28;20561;-80
2022/03/29 16:07:04;;;;;;;20.57;6.80;;;9.10;97.00;;;;;;10384571;28;20396;-80
2022/03/29 16:12:25;;;;;;;21.30;7.27;;;9.00;96.70;;;;;;10384340;28;20202;-79
2022/03/29 16:17:48;;;;;;;17.87;6.10;;;8.90;97.50;;;;;;10396641;28;20201;-80
2022/03/29 16:23:10;;;;;;;13.67;5.37;;;8.90;97.40;;;;;;10378500;28;20231;-80
2022/03/29 16:28:34;;;;;;;12.17;4.73;;;8.80;96.50;;;;;;10398547;28;20192;-80
2022/03/29 16:33:57;;;;;;;16.43;5.13;;;8.80;96.40;;;;;;10384062;28;20234;-79
2022/03/29 16:39:22;;;;;;;19.53;9.90;;;8.70;96.50;;;;;;10383423;28;20235;-81
2022/03/29 16:44:44;;;;;;;20.63;9.70;;;8.10;98.40;;;;;;10396637;28;20529;-79
2022/03/29 16:50:06;;;;;;;21.90;10.37;;;7.80;99.60;;;;;;10396708;28;20433;-79
2022/03/29 16:55:28;;;;;;;35.00;16.07;;;7.60;99.90;;;;;;10396771;28;20270;-80
2022/03/29 17:00:51;;;;;;;17.33;8.23;;;7.40;99.90;;;;;;10396491;28;20239;-78
2022/03/29 17:06:13;;;;;;;18.63;7.20;;;7.30;99.90;;;;;;10396433;28;20195;-80
2022/03/29 17:11:38;;;;;;;19.00;8.00;;;7.00;99.90;;;;;;10341677;28;20421;-79
2022/03/29 17:17:00;;;;;;;36.00;14.83;;;7.10;99.90;;;;;;10333444;28;20274;-79
2022/03/29 17:22:23;;;;;;;31.50;13.63;;;6.90;99.90;;;;;;10381377;28;20232;-80
2022/03/29 17:27:46;;;;;;;46.40;20.53;;;6.90;99.90;;;;;;10382048;28;20270;-79
2022/03/29 17:33:08;;;;;;;24.63;11.17;;;6.80;99.90;;;;;;10381366;28;20537;-80
2022/03/29 17:38:32;;;;;;;17.10;9.13;;;6.60;99.90;;;;;;10381171;28;20239;-80
2022/03/29 17:43:55;;;;;;;26.00;12.10;;;6.50;99.90;;;;;;10395223;28;20510;-79
2022/03/29 17:49:18;;;;;;;32.83;14.27;;;6.40;99.90;;;;;;10367601;28;20243;-79
2022/03/29 17:54:40;;;;;;;26.90;12.43;;;6.30;99.90;;;;;;10395091;28;20391;-79
2022/03/29 18:00:08;;;;;;;29.67;12.03;;;6.30;99.90;;;;;;10394760;28;20250;-79
2022/03/29 18:05:34;;;;;;;29.57;13.80;;;6.20;99.90;;;;;;10366899;28;20200;-79
2022/03/29 18:10:56;;;;;;;26.97;12.90;;;6.20;99.90;;;;;;10381243;28;20424;-79
2022/03/29 18:16:18;;;;;;;36.07;15.73;;;6.10;99.90;;;;;;10353809;28;20509;-79
2022/03/29 18:21:39;;;;;;;39.00;17.70;;;6.00;99.90;;;;;;10373247;28;20257;-79
2022/03/29 18:27:01;;;;;;;25.03;10.07;;;6.00;99.90;;;;;;10394232;28;20203;-80
2022/03/29 18:32:27;;;;;;;27.53;9.10;;;5.90;99.90;;;;;;10381162;28;20202;-79
2022/03/29 18:37:52;;;;;;;35.13;13.07;;;5.80;99.90;;;;;;10377791;28;20234;-79
2022/03/29 18:43:14;;;;;;;21.33;7.93;;;5.80;99.90;;;;;;10366596;28;20301;-79
2022/03/29 18:48:36;;;;;;;15.80;7.53;;;5.70;99.90;;;;;;10380147;28;20495;-80
2022/03/29 18:53:58;;;;;;;25.87;8.40;;;5.60;99.90;;;;;;10393677;28;20198;-80
2022/03/29 18:59:21;;;;;;;19.63;8.73;;;5.40;99.90;;;;;;10385451;28;20395;-79
2022/03/29 19:04:44;;;;;;;19.97;9.37;;;5.40;99.90;;;;;;10386944;28;20226;-80
2022/03/29 19:10:06;;;;;;;19.87;9.20;;;5.40;99.90;;;;;;10386894;28;20241;-79
2022/03/29 19:15:28;;;;;;;16.90;8.10;;;5.50;99.90;;;;;;10386310;28;20303;-78
2022/03/29 19:20:51;;;;;;;17.80;7.67;;;5.40;99.90;;;;;;10399968;28;20238;-79
2022/03/29 19:26:14;;;;;;;23.37;9.67;;;5.20;99.90;;;;;;10386383;28;20270;-80
2022/03/29 19:31:37;;;;;;;21.23;8.27;;;5.00;99.90;;;;;;10386410;28;20205;-79
2022/03/29 19:36:59;;;;;;;15.30;7.07;;;4.90;99.90;;;;;;10399536;28;20452;-79
2022/03/29 19:42:35;;;;;;;19.33;7.80;;;4.90;99.90;;;;;;10385824;28;20225;-80
2022/03/29 19:48:16;;;;;;;19.87;9.03;;;5.00;99.90;;;;;;10388188;28;20232;-79
2022/03/29 19:53:38;;;;;;;16.17;6.87;;;5.00;99.90;;;;;;10385500;28;20213;-79
2022/03/29 19:59:00;;;;;;;17.57;8.10;;;5.00;99.90;;;;;;10400905;28;20194;-79
2022/03/29 20:04:22;;;;;;;15.13;6.07;;;5.00;99.90;;;;;;10398248;28;20226;-78
2022/03/29 20:09:46;;;;;;;10.43;5.27;;;5.00;99.90;;;;;;10345274;28;20190;-78
2022/03/29 20:15:08;;;;;;;11.57;5.17;;;4.90;99.90;;;;;;10399066;28;20277;-80
2022/03/29 20:20:30;;;;;;;10.70;5.10;;;4.90;99.90;;;;;;10376181;28;20206;-79
2022/03/29 20:25:52;;;;;;;12.40;4.53;;;5.00;99.90;;;;;;10358292;28;20199;-78
2022/03/29 20:31:15;;;;;;;10.03;4.03;;;4.90;99.90;;;;;;10343721;28;20391;-78
2022/03/29 20:36:38;;;;;;;9.90;4.03;;;4.80;99.90;;;;;;10389524;28;20281;-77
2022/03/29 20:42:00;;;;;;;11.97;4.23;;;4.90;99.90;;;;;;10398435;28;20209;-78
2022/03/29 20:47:21;;;;;;;11.73;4.57;;;4.80;99.90;;;;;;10392980;28;20200;-79
2022/03/29 20:52:43;;;;;;;9.50;3.63;;;4.80;99.90;;;;;;10403766;28;20246;-79
2022/03/29 20:58:05;;;;;;;9.63;4.00;;;4.70;99.90;;;;;;10384193;28;20354;-78
2022/03/29 21:03:28;;;;;;;8.13;3.00;;;4.80;99.90;;;;;;10396668;28;20221;-78
2022/03/29 21:08:50;;;;;;;14.10;4.57;;;4.70;99.90;;;;;;10398306;28;20218;-78
2022/03/29 21:14:14;;;;;;;10.97;4.13;;;4.70;99.90;;;;;;10382513;28;20220;-78
2022/03/29 21:19:36;;;;;;;12.70;4.70;;;4.80;99.90;;;;;;10379266;28;20429;-79
2022/03/29 21:24:58;;;;;;;9.37;4.03;;;4.80;99.90;;;;;;10393135;28;20230;-79
2022/03/29 21:30:21;;;;;;;8.20;3.87;;;4.80;99.90;;;;;;10382145;28;20242;-79
2022/03/29 21:35:43;;;;;;;7.57;3.43;;;4.90;99.90;;;;;;10395540;28;20699;-78
2022/03/29 21:41:07;;;;;;;7.17;3.43;;;4.90;99.90;;;;;;10396541;28;20225;-78
2022/03/29 21:46:29;;;;;;;7.63;3.40;;;4.90;99.90;;;;;;10382118;28;20200;-78
2022/03/29 21:51:51;;;;;;;7.50;3.97;;;4.80;99.90;;;;;;10369318;28;20323;-78
2022/03/29 21:57:32;;;;;;;7.53;3.33;;;4.70;99.90;;;;;;10385324;28;20213;-78
2022/03/29 22:03:15;;;;;;;8.57;3.60;;;4.60;99.90;;;;;;10383530;28;20225;-78
2022/03/29 22:08:55;;;;;;;10.00;4.53;;;4.50;99.90;;;;;;10395706;28;20252;-81
2022/03/29 22:14:17;;;;;;;10.27;4.07;;;4.60;99.90;;;;;;10373578;28;20526;-79
2022/03/29 22:19:53;;;;;;;13.07;5.23;;;4.60;99.90;;;;;;10364452;28;20202;-77
2022/03/29 22:25:16;;;;;;;7.27;4.77;;;4.60;99.90;;;;;;10369601;28;20226;-78
2022/03/29 22:30:38;;;;;;;8.43;4.20;;;4.50;99.90;;;;;;10342125;28;20222;-79
2022/03/29 22:36:00;;;;;;;9.90;4.90;;;4.40;99.90;;;;;;10371360;28;20284;-78
2022/03/29 22:41:21;;;;;;;9.63;4.20;;;4.40;99.90;;;;;;10387823;28;20278;-78
2022/03/29 22:46:43;;;;;;;8.33;4.30;;;4.20;99.90;;;;;;10401648;28;20220;-79
2022/03/29 22:52:06;;;;;;;11.37;4.87;;;4.20;99.90;;;;;;10387700;28;20208;-77
2022/03/29 22:57:29;;;;;;;9.93;5.03;;;4.20;99.90;;;;;;10387732;28;20198;-79
2022/03/29 23:02:51;;;;;;;16.53;5.40;;;4.20;99.90;;;;;;10387296;28;20232;-80
2022/03/29 23:08:13;;;;;;;12.40;4.70;;;4.20;99.90;;;;;;10387496;28;20193;-79
2022/03/29 23:13:35;;;;;;;12.93;4.80;;;4.30;99.90;;;;;;10386689;28;20252;-80
2022/03/29 23:18:58;;;;;;;9.10;4.57;;;4.20;99.90;;;;;;10381604;28;20202;-81
2022/03/29 23:24:20;;;;;;;10.67;4.77;;;4.10;99.90;;;;;;10386591;28;20391;-79
2022/03/29 23:29:42;;;;;;;11.10;4.90;;;4.20;99.90;;;;;;10400393;28;20193;-79
2022/03/29 23:35:05;;;;;;;12.03;5.00;;;4.20;99.90;;;;;;10385555;28;20232;-81
2022/03/29 23:40:27;;;;;;;12.10;5.10;;;4.10;99.90;;;;;;10399886;28;20543;-79
2022/03/29 23:45:49;;;;;;;15.70;6.57;;;4.00;99.90;;;;;;10371537;28;20311;-81
2022/03/29 23:51:11;;;;;;;19.93;8.77;;;;;;;;;;10385658;28;20208;-82
2022/03/29 23:56:34;;;;;;;15.20;6.40;;;;;;;;;;10400275;28;20449;-80
